sensor_id;sensor_type;location;lat;lon;timestamp;P1;durP1;ratioP1;P2;durP2;ratioP2
77828;SDS011;67019;51.034;3.728;2023-03-29T00:00:07;6.95;;;3.77;;
77828;SDS011;67019;51.034;3.728;2023-03-29T00:02:37;6.72;;;3.67;;
77828;SDS011;67019;51.034;3.728;2023-03-29T00:05:07;10.32;;;3.98;;
77828;SDS011;67019;51.034;3.728;2023-03-29T00:07:39;6.53;;;3.25;;
77828;SDS011;67019;51.034;3.728;2023-03-29T00:10:07;7.40;;;3.42;;
77828;SDS011;67019;51.034;3.728;2023-03-29T00:12:36;8.47;;;3.53;;
77828;SDS011;67019;51.034;3.728;2023-03-29T00:15:05;8.60;;;2.85;;
77828;SDS011;67019;51.034;3.728;2023-03-29T00:17:34;6.50;;;3.00;;
77828;SDS011;67019;51.034;3.728;2023-03-29T00:20:01;9.83;;;3.40;;
77828;SDS011;67019;51.034;3.728;2023-03-29T00:22:31;8.85;;;3.17;;
77828;SDS011;67019;51.034;3.728;2023-03-29T00:24:59;5.75;;;2.87;;
77828;SDS011;67019;51.034;3.728;2023-03-29T00:27:26;7.08;;;2.95;;
77828;SDS011;67019;51.034;3.728;2023-03-29T00:29:54;4.47;;;2.87;;
77828;SDS011;67019;51.034;3.728;2023-03-29T00:32:22;4.08;;;3.05;;
77828;SDS011;67019;51.034;3.728;2023-03-29T00:34:50;7.85;;;3.02;;
77828;SDS011;67019;51.034;3.728;2023-03-29T00:37:18;6.50;;;2.98;;
77828;SDS011;67019;51.034;3.728;2023-03-29T00:39:46;5.17;;;3.15;;
77828;SDS011;67019;51.034;3.728;2023-03-29T00:42:14;3.98;;;2.90;;
77828;SDS011;67019;51.034;3.728;2023-03-29T00:50:32;8.75;;;3.52;;
77828;SDS011;67019;51.034;3.728;2023-03-29T00:53:13;7.37;;;3.55;;
77828;SDS011;67019;51.034;3.728;2023-03-29T00:55:52;10.80;;;6.28;;
77828;SDS011;67019;51.034;3.728;2023-03-29T01:00:45;8.10;;;3.37;;
77828;SDS011;67019;51.034;3.728;2023-03-29T01:03:17;7.65;;;2.98;;
77828;SDS011;67019;51.034;3.728;2023-03-29T01:05:56;6.53;;;2.67;;
77828;SDS011;67019;51.034;3.728;2023-03-29T01:08:25;7.35;;;3.80;;
77828;SDS011;67019;51.034;3.728;2023-03-29T01:11:03;9.35;;;3.55;;
77828;SDS011;67019;51.034;3.728;2023-03-29T01:13:40;11.93;;;3.08;;
77828;SDS011;67019;51.034;3.728;2023-03-29T01:16:09;5.85;;;3.27;;
77828;SDS011;67019;51.034;3.728;2023-03-29T01:18:39;5.53;;;2.98;;
77828;SDS011;67019;51.034;3.728;2023-03-29T01:31:43;7.42;;;3.27;;
77828;SDS011;67019;51.034;3.728;2023-03-29T01:34:23;5.40;;;3.47;;
77828;SDS011;67019;51.034;3.728;2023-03-29T01:37:06;8.48;;;3.20;;
77828;SDS011;67019;51.034;3.728;2023-03-29T01:39:31;8.73;;;3.40;;
77828;SDS011;67019;51.034;3.728;2023-03-29T01:42:07;5.15;;;2.92;;
77828;SDS011;67019;51.034;3.728;2023-03-29T01:44:43;5.87;;;3.30;;
77828;SDS011;67019;51.034;3.728;2023-03-29T01:47:22;8.08;;;3.67;;
77828;SDS011;67019;51.034;3.728;2023-03-29T01:52:57;6.30;;;2.95;;
77828;SDS011;67019;51.034;3.728;2023-03-29T01:55:27;9.13;;;3.58;;
77828;SDS011;67019;51.034;3.728;2023-03-29T02:00:25;6.37;;;2.98;;
77828;SDS011;67019;51.034;3.728;2023-03-29T02:02:59;9.15;;;3.60;;
77828;SDS011;67019;51.034;3.728;2023-03-29T02:07:53;6.42;;;3.25;;
77828;SDS011;67019;51.034;3.728;2023-03-29T02:10:21;6.30;;;3.50;;
77828;SDS011;67019;51.034;3.728;2023-03-29T02:12:50;5.80;;;3.35;;
77828;SDS011;67019;51.034;3.728;2023-03-29T02:15:19;5.30;;;3.15;;
77828;SDS011;67019;51.034;3.728;2023-03-29T02:17:48;3.47;;;3.05;;
77828;SDS011;67019;51.034;3.728;2023-03-29T02:20:18;6.05;;;3.40;;
77828;SDS011;67019;51.034;3.728;2023-03-29T02:25:35;8.63;;;3.10;;
77828;SDS011;67019;51.034;3.728;2023-03-29T02:28:03;7.90;;;3.50;;
77828;SDS011;67019;51.034;3.728;2023-03-29T02:33:23;8.48;;;3.45;;
77828;SDS011;67019;51.034;3.728;2023-03-29T02:38:24;5.08;;;3.50;;
77828;SDS011;67019;51.034;3.728;2023-03-29T02:40:53;9.68;;;3.62;;
77828;SDS011;67019;51.034;3.728;2023-03-29T02:43:22;8.98;;;3.67;;
77828;SDS011;67019;51.034;3.728;2023-03-29T02:45:51;6.12;;;3.22;;
77828;SDS011;67019;51.034;3.728;2023-03-29T02:48:20;8.50;;;3.85;;
77828;SDS011;67019;51.034;3.728;2023-03-29T02:50:52;6.03;;;2.87;;
77828;SDS011;67019;51.034;3.728;2023-03-29T02:55:50;9.33;;;3.45;;
77828;SDS011;67019;51.034;3.728;2023-03-29T02:58:18;11.85;;;5.92;;
77828;SDS011;67019;51.034;3.728;2023-03-29T03:00:49;5.95;;;3.33;;
77828;SDS011;67019;51.034;3.728;2023-03-29T03:03:16;8.00;;;4.22;;
77828;SDS011;67019;51.034;3.728;2023-03-29T03:05:44;8.58;;;3.70;;
77828;SDS011;67019;51.034;3.728;2023-03-29T03:08:12;7.42;;;3.22;;
77828;SDS011;67019;51.034;3.728;2023-03-29T03:10:40;6.35;;;3.92;;
77828;SDS011;67019;51.034;3.728;2023-03-29T03:13:08;6.72;;;3.37;;
77828;SDS011;67019;51.034;3.728;2023-03-29T03:15:36;7.90;;;4.00;;
77828;SDS011;67019;51.034;3.728;2023-03-29T03:18:05;9.68;;;4.35;;
77828;SDS011;67019;51.034;3.728;2023-03-29T03:20:33;7.42;;;3.92;;
77828;SDS011;67019;51.034;3.728;2023-03-29T03:23:01;9.55;;;3.75;;
77828;SDS011;67019;51.034;3.728;2023-03-29T03:25:28;6.40;;;3.45;;
77828;SDS011;67019;51.034;3.728;2023-03-29T03:27:57;7.03;;;4.78;;
77828;SDS011;67019;51.034;3.728;2023-03-29T03:30:24;5.83;;;3.45;;
77828;SDS011;67019;51.034;3.728;2023-03-29T03:32:53;7.60;;;4.05;;
77828;SDS011;67019;51.034;3.728;2023-03-29T03:35:21;6.65;;;4.12;;
77828;SDS011;67019;51.034;3.728;2023-03-29T03:37:49;6.67;;;3.95;;
77828;SDS011;67019;51.034;3.728;2023-03-29T03:40:16;10.15;;;3.65;;
77828;SDS011;67019;51.034;3.728;2023-03-29T03:42:44;7.85;;;4.28;;
77828;SDS011;67019;51.034;3.728;2023-03-29T03:45:11;5.67;;;3.95;;
77828;SDS011;67019;51.034;3.728;2023-03-29T03:47:40;10.43;;;3.47;;
77828;SDS011;67019;51.034;3.728;2023-03-29T03:50:07;11.20;;;4.78;;
77828;SDS011;67019;51.034;3.728;2023-03-29T03:52:36;10.30;;;4.42;;
77828;SDS011;67019;51.034;3.728;2023-03-29T03:55:04;10.93;;;4.33;;
77828;SDS011;67019;51.034;3.728;2023-03-29T03:57:33;8.08;;;4.87;;
77828;SDS011;67019;51.034;3.728;2023-03-29T04:00:05;9.40;;;4.03;;
77828;SDS011;67019;51.034;3.728;2023-03-29T04:02:35;6.10;;;4.05;;
77828;SDS011;67019;51.034;3.728;2023-03-29T04:05:02;5.92;;;5.08;;
77828;SDS011;67019;51.034;3.728;2023-03-29T04:07:39;4.97;;;3.70;;
77828;SDS011;67019;51.034;3.728;2023-03-29T04:10:03;8.60;;;3.95;;
77828;SDS011;67019;51.034;3.728;2023-03-29T04:12:33;9.73;;;4.27;;
77828;SDS011;67019;51.034;3.728;2023-03-29T04:15:02;9.55;;;3.77;;
77828;SDS011;67019;51.034;3.728;2023-03-29T04:17:31;8.90;;;4.80;;
77828;SDS011;67019;51.034;3.728;2023-03-29T04:19:59;9.98;;;5.08;;
77828;SDS011;67019;51.034;3.728;2023-03-29T04:22:28;8.33;;;4.60;;
77828;SDS011;67019;51.034;3.728;2023-03-29T04:24:56;6.75;;;4.37;;
77828;SDS011;67019;51.034;3.728;2023-03-29T04:27:24;10.00;;;5.28;;
77828;SDS011;67019;51.034;3.728;2023-03-29T04:29:51;9.18;;;4.75;;
77828;SDS011;67019;51.034;3.728;2023-03-29T04:32:19;10.03;;;4.55;;
77828;SDS011;67019;51.034;3.728;2023-03-29T04:34:46;11.22;;;4.97;;
77828;SDS011;67019;51.034;3.728;2023-03-29T04:37:14;11.10;;;5.65;;
77828;SDS011;67019;51.034;3.728;2023-03-29T04:39:43;9.05;;;4.55;;
77828;SDS011;67019;51.034;3.728;2023-03-29T04:42:11;14.40;;;4.53;;
77828;SDS011;67019;51.034;3.728;2023-03-29T04:44:39;10.68;;;5.00;;
77828;SDS011;67019;51.034;3.728;2023-03-29T04:47:08;6.50;;;4.53;;
77828;SDS011;67019;51.034;3.728;2023-03-29T04:49:40;8.23;;;4.87;;
77828;SDS011;67019;51.034;3.728;2023-03-29T04:52:07;8.13;;;4.80;;
77828;SDS011;67019;51.034;3.728;2023-03-29T04:54:35;8.20;;;4.53;;
77828;SDS011;67019;51.034;3.728;2023-03-29T04:57:07;9.08;;;5.15;;
77828;SDS011;67019;51.034;3.728;2023-03-29T04:59:35;9.20;;;4.50;;
77828;SDS011;67019;51.034;3.728;2023-03-29T05:02:02;10.32;;;4.65;;
77828;SDS011;67019;51.034;3.728;2023-03-29T05:04:30;6.72;;;4.50;;
77828;SDS011;67019;51.034;3.728;2023-03-29T05:06:58;9.18;;;4.58;;
77828;SDS011;67019;51.034;3.728;2023-03-29T05:09:27;9.00;;;4.62;;
77828;SDS011;67019;51.034;3.728;2023-03-29T05:11:54;11.80;;;5.67;;
77828;SDS011;67019;51.034;3.728;2023-03-29T05:14:22;7.50;;;4.42;;
77828;SDS011;67019;51.034;3.728;2023-03-29T05:16:51;24.30;;;8.28;;
77828;SDS011;67019;51.034;3.728;2023-03-29T05:19:19;7.58;;;4.45;;
77828;SDS011;67019;51.034;3.728;2023-03-29T05:21:47;10.35;;;4.78;;
77828;SDS011;67019;51.034;3.728;2023-03-29T05:53:32;9.83;;;4.95;;
77828;SDS011;67019;51.034;3.728;2023-03-29T05:59:49;8.28;;;4.40;;
77828;SDS011;67019;51.034;3.728;2023-03-29T06:29:14;11.70;;;5.92;;
77828;SDS011;67019;51.034;3.728;2023-03-29T06:31:46;23.15;;;6.17;;
77828;SDS011;67019;51.034;3.728;2023-03-29T06:36:49;16.77;;;6.37;;
77828;SDS011;67019;51.034;3.728;2023-03-29T06:39:21;12.95;;;5.50;;
77828;SDS011;67019;51.034;3.728;2023-03-29T06:41:51;10.45;;;5.60;;
77828;SDS011;67019;51.034;3.728;2023-03-29T06:46:52;10.32;;;6.17;;
77828;SDS011;67019;51.034;3.728;2023-03-29T06:49:19;14.13;;;5.67;;
77828;SDS011;67019;51.034;3.728;2023-03-29T06:51:50;14.00;;;6.53;;
77828;SDS011;67019;51.034;3.728;2023-03-29T06:54:24;14.35;;;4.97;;
77828;SDS011;67019;51.034;3.728;2023-03-29T06:56:53;14.23;;;5.33;;
77828;SDS011;67019;51.034;3.728;2023-03-29T06:59:30;15.13;;;5.55;;
77828;SDS011;67019;51.034;3.728;2023-03-29T07:02:09;11.93;;;5.55;;
77828;SDS011;67019;51.034;3.728;2023-03-29T07:04:43;11.78;;;4.65;;
77828;SDS011;67019;51.034;3.728;2023-03-29T07:07:18;7.72;;;5.72;;
77828;SDS011;67019;51.034;3.728;2023-03-29T07:09:49;12.58;;;6.20;;
77828;SDS011;67019;51.034;3.728;2023-03-29T07:12:22;12.68;;;5.67;;
77828;SDS011;67019;51.034;3.728;2023-03-29T07:14:58;10.18;;;6.35;;
77828;SDS011;67019;51.034;3.728;2023-03-29T07:17:31;8.23;;;5.70;;
77828;SDS011;67019;51.034;3.728;2023-03-29T07:20:02;13.40;;;5.35;;
77828;SDS011;67019;51.034;3.728;2023-03-29T07:22:37;14.73;;;5.75;;
77828;SDS011;67019;51.034;3.728;2023-03-29T07:25:11;15.45;;;8.68;;
77828;SDS011;67019;51.034;3.728;2023-03-29T07:28:04;12.88;;;5.60;;
77828;SDS011;67019;51.034;3.728;2023-03-29T07:34:04;10.30;;;5.00;;
77828;SDS011;67019;51.034;3.728;2023-03-29T07:36:40;25.50;;;7.00;;
77828;SDS011;67019;51.034;3.728;2023-03-29T07:39:11;12.07;;;5.78;;
77828;SDS011;67019;51.034;3.728;2023-03-29T07:41:43;17.90;;;5.85;;
77828;SDS011;67019;51.034;3.728;2023-03-29T07:44:20;11.78;;;6.20;;
77828;SDS011;67019;51.034;3.728;2023-03-29T07:46:52;20.00;;;5.95;;
77828;SDS011;67019;51.034;3.728;2023-03-29T07:49:26;13.90;;;5.53;;
77828;SDS011;67019;51.034;3.728;2023-03-29T07:51:56;17.35;;;7.20;;
77828;SDS011;67019;51.034;3.728;2023-03-29T07:54:31;19.40;;;6.17;;
77828;SDS011;67019;51.034;3.728;2023-03-29T07:57:17;12.37;;;5.83;;
77828;SDS011;67019;51.034;3.728;2023-03-29T07:59:43;8.68;;;5.17;;
77828;SDS011;67019;51.034;3.728;2023-03-29T08:02:11;13.30;;;5.83;;
77828;SDS011;67019;51.034;3.728;2023-03-29T08:04:41;14.25;;;6.30;;
77828;SDS011;67019;51.034;3.728;2023-03-29T08:07:13;15.75;;;5.90;;
77828;SDS011;67019;51.034;3.728;2023-03-29T08:09:49;17.95;;;4.55;;
77828;SDS011;67019;51.034;3.728;2023-03-29T08:12:24;15.58;;;5.47;;
77828;SDS011;67019;51.034;3.728;2023-03-29T08:14:52;8.55;;;4.90;;
77828;SDS011;67019;51.034;3.728;2023-03-29T08:17:21;10.05;;;5.35;;
77828;SDS011;67019;51.034;3.728;2023-03-29T08:20:12;9.90;;;5.22;;
77828;SDS011;67019;51.034;3.728;2023-03-29T08:23:02;13.20;;;5.53;;
77828;SDS011;67019;51.034;3.728;2023-03-29T08:25:38;18.45;;;5.95;;
77828;SDS011;67019;51.034;3.728;2023-03-29T08:28:25;9.50;;;5.92;;
77828;SDS011;67019;51.034;3.728;2023-03-29T08:30:59;19.32;;;6.00;;
77828;SDS011;67019;51.034;3.728;2023-03-29T08:33:29;14.85;;;6.90;;
77828;SDS011;67019;51.034;3.728;2023-03-29T08:36:00;15.95;;;5.67;;
77828;SDS011;67019;51.034;3.728;2023-03-29T08:38:29;12.68;;;5.40;;
77828;SDS011;67019;51.034;3.728;2023-03-29T08:41:00;13.58;;;5.85;;
77828;SDS011;67019;51.034;3.728;2023-03-29T08:44:02;17.52;;;6.62;;
77828;SDS011;67019;51.034;3.728;2023-03-29T08:49:40;15.78;;;6.30;;
77828;SDS011;67019;51.034;3.728;2023-03-29T08:52:17;13.05;;;5.58;;
77828;SDS011;67019;51.034;3.728;2023-03-29T08:55:09;12.73;;;6.45;;
77828;SDS011;67019;51.034;3.728;2023-03-29T08:57:47;20.02;;;6.67;;
77828;SDS011;67019;51.034;3.728;2023-03-29T09:00:24;14.28;;;5.80;;
77828;SDS011;67019;51.034;3.728;2023-03-29T09:02:54;13.58;;;6.97;;
77828;SDS011;67019;51.034;3.728;2023-03-29T09:05:32;16.90;;;6.30;;
77828;SDS011;67019;51.034;3.728;2023-03-29T09:08:00;13.93;;;6.50;;
77828;SDS011;67019;51.034;3.728;2023-03-29T09:10:34;14.38;;;6.15;;
77828;SDS011;67019;51.034;3.728;2023-03-29T09:13:12;10.13;;;6.03;;
77828;SDS011;67019;51.034;3.728;2023-03-29T09:15:54;17.87;;;6.75;;
77828;SDS011;67019;51.034;3.728;2023-03-29T09:30:40;18.07;;;7.08;;
77828;SDS011;67019;51.034;3.728;2023-03-29T09:33:16;17.00;;;5.78;;
77828;SDS011;67019;51.034;3.728;2023-03-29T09:35:57;7.70;;;5.70;;
77828;SDS011;67019;51.034;3.728;2023-03-29T09:38:45;8.23;;;6.15;;
77828;SDS011;67019;51.034;3.728;2023-03-29T09:44:29;9.93;;;5.78;;
77828;SDS011;67019;51.034;3.728;2023-03-29T09:53:31;12.78;;;6.33;;
77828;SDS011;67019;51.034;3.728;2023-03-29T09:56:24;11.63;;;7.00;;
77828;SDS011;67019;51.034;3.728;2023-03-29T09:58:58;12.05;;;5.70;;
77828;SDS011;67019;51.034;3.728;2023-03-29T10:01:38;14.07;;;6.65;;
77828;SDS011;67019;51.034;3.728;2023-03-29T10:04:10;11.90;;;6.17;;
77828;SDS011;67019;51.034;3.728;2023-03-29T10:07:02;9.33;;;4.58;;
77828;SDS011;67019;51.034;3.728;2023-03-29T10:10:48;14.33;;;5.87;;
77828;SDS011;67019;51.034;3.728;2023-03-29T10:12:49;8.43;;;6.45;;
77828;SDS011;67019;51.034;3.728;2023-03-29T10:15:20;9.08;;;5.20;;
77828;SDS011;67019;51.034;3.728;2023-03-29T10:17:55;15.63;;;6.85;;
77828;SDS011;67019;51.034;3.728;2023-03-29T10:20:30;13.48;;;6.83;;
77828;SDS011;67019;51.034;3.728;2023-03-29T10:23:07;9.43;;;6.35;;
77828;SDS011;67019;51.034;3.728;2023-03-29T10:25:55;9.48;;;5.47;;
77828;SDS011;67019;51.034;3.728;2023-03-29T10:28:25;8.35;;;5.87;;
77828;SDS011;67019;51.034;3.728;2023-03-29T10:30:59;11.93;;;6.78;;
77828;SDS011;67019;51.034;3.728;2023-03-29T10:33:36;14.00;;;5.92;;
77828;SDS011;67019;51.034;3.728;2023-03-29T10:36:09;10.70;;;6.20;;
77828;SDS011;67019;51.034;3.728;2023-03-29T10:39:06;8.35;;;5.90;;
77828;SDS011;67019;51.034;3.728;2023-03-29T10:41:48;12.77;;;6.07;;
77828;SDS011;67019;51.034;3.728;2023-03-29T10:52:41;20.30;;;9.33;;
77828;SDS011;67019;51.034;3.728;2023-03-29T11:28:42;6.62;;;4.08;;
77828;SDS011;67019;51.034;3.728;2023-03-29T11:40:02;7.20;;;4.53;;
77828;SDS011;67019;51.034;3.728;2023-03-29T11:45:11;152.05;;;17.57;;
77828;SDS011;67019;51.034;3.728;2023-03-29T11:47:43;11.03;;;4.28;;
77828;SDS011;67019;51.034;3.728;2023-03-29T11:50:16;9.43;;;3.90;;
77828;SDS011;67019;51.034;3.728;2023-03-29T11:52:48;5.35;;;3.58;;
77828;SDS011;67019;51.034;3.728;2023-03-29T11:55:26;6.62;;;3.33;;
77828;SDS011;67019;51.034;3.728;2023-03-29T11:58:00;14.10;;;3.83;;
77828;SDS011;67019;51.034;3.728;2023-03-29T12:00:43;6.37;;;3.65;;
77828;SDS011;67019;51.034;3.728;2023-03-29T12:03:12;7.75;;;3.30;;
77828;SDS011;67019;51.034;3.728;2023-03-29T12:06:10;9.58;;;5.03;;
77828;SDS011;67019;51.034;3.728;2023-03-29T12:14:03;5.65;;;3.90;;
77828;SDS011;67019;51.034;3.728;2023-03-29T12:16:34;8.10;;;3.22;;
77828;SDS011;67019;51.034;3.728;2023-03-29T12:19:24;5.97;;;3.58;;
77828;SDS011;67019;51.034;3.728;2023-03-29T12:24:16;10.80;;;4.17;;
77828;SDS011;67019;51.034;3.728;2023-03-29T12:33:02;19.23;;;4.17;;
77828;SDS011;67019;51.034;3.728;2023-03-29T12:38:42;10.20;;;4.47;;
77828;SDS011;67019;51.034;3.728;2023-03-29T12:41:16;4.72;;;3.10;;
77828;SDS011;67019;51.034;3.728;2023-03-29T12:43:46;4.70;;;3.15;;
77828;SDS011;67019;51.034;3.728;2023-03-29T12:46:26;7.90;;;2.95;;
77828;SDS011;67019;51.034;3.728;2023-03-29T12:48:53;5.55;;;3.75;;
77828;SDS011;67019;51.034;3.728;2023-03-29T12:51:31;5.47;;;3.85;;
77828;SDS011;67019;51.034;3.728;2023-03-29T12:54:11;5.87;;;3.37;;
77828;SDS011;67019;51.034;3.728;2023-03-29T12:56:40;5.08;;;2.95;;
77828;SDS011;67019;51.034;3.728;2023-03-29T12:59:53;15.70;;;3.35;;
77828;SDS011;67019;51.034;3.728;2023-03-29T13:04:48;6.70;;;2.87;;
77828;SDS011;67019;51.034;3.728;2023-03-29T13:09:52;14.28;;;3.08;;
77828;SDS011;67019;51.034;3.728;2023-03-29T13:12:28;9.63;;;3.52;;
77828;SDS011;67019;51.034;3.728;2023-03-29T13:15:05;20.02;;;4.20;;
77828;SDS011;67019;51.034;3.728;2023-03-29T13:17:55;12.58;;;3.40;;
77828;SDS011;67019;51.034;3.728;2023-03-29T13:20:24;12.65;;;4.12;;
77828;SDS011;67019;51.034;3.728;2023-03-29T13:23:14;7.10;;;4.00;;
77828;SDS011;67019;51.034;3.728;2023-03-29T13:26:00;6.60;;;3.80;;
77828;SDS011;67019;51.034;3.728;2023-03-29T13:34:19;4.25;;;3.08;;
77828;SDS011;67019;51.034;3.728;2023-03-29T13:39:51;9.90;;;3.60;;
77828;SDS011;67019;51.034;3.728;2023-03-29T13:45:21;91.92;;;6.85;;
77828;SDS011;67019;51.034;3.728;2023-03-29T13:48:03;7.70;;;4.30;;
77828;SDS011;67019;51.034;3.728;2023-03-29T13:50:54;8.70;;;3.67;;
77828;SDS011;67019;51.034;3.728;2023-03-29T13:56:40;15.38;;;4.87;;
77828;SDS011;67019;51.034;3.728;2023-03-29T13:59:11;8.53;;;5.15;;
77828;SDS011;67019;51.034;3.728;2023-03-29T14:04:30;8.60;;;5.20;;
77828;SDS011;67019;51.034;3.728;2023-03-29T14:07:03;7.87;;;4.22;;
77828;SDS011;67019;51.034;3.728;2023-03-29T14:09:37;8.85;;;4.83;;
77828;SDS011;67019;51.034;3.728;2023-03-29T14:14:34;11.00;;;5.47;;
77828;SDS011;67019;51.034;3.728;2023-03-29T14:17:03;11.35;;;5.70;;
77828;SDS011;67019;51.034;3.728;2023-03-29T14:19:32;11.63;;;5.60;;
77828;SDS011;67019;51.034;3.728;2023-03-29T14:22:07;10.93;;;4.87;;
77828;SDS011;67019;51.034;3.728;2023-03-29T14:24:38;11.53;;;5.35;;
77828;SDS011;67019;51.034;3.728;2023-03-29T14:27:09;28.92;;;8.90;;
77828;SDS011;67019;51.034;3.728;2023-03-29T14:29:37;10.00;;;5.45;;
77828;SDS011;67019;51.034;3.728;2023-03-29T14:32:13;14.47;;;5.00;;
77828;SDS011;67019;51.034;3.728;2023-03-29T14:34:38;51.28;;;7.67;;
77828;SDS011;67019;51.034;3.728;2023-03-29T14:37:08;8.98;;;5.60;;
77828;SDS011;67019;51.034;3.728;2023-03-29T14:39:37;23.47;;;6.53;;
77828;SDS011;67019;51.034;3.728;2023-03-29T14:42:09;12.53;;;5.92;;
77828;SDS011;67019;51.034;3.728;2023-03-29T14:47:03;9.93;;;5.35;;
77828;SDS011;67019;51.034;3.728;2023-03-29T14:49:31;22.48;;;6.53;;
77828;SDS011;67019;51.034;3.728;2023-03-29T14:51:58;14.75;;;6.55;;
77828;SDS011;67019;51.034;3.728;2023-03-29T14:54:31;12.10;;;5.92;;
77828;SDS011;67019;51.034;3.728;2023-03-29T14:57:04;12.23;;;6.17;;
77828;SDS011;67019;51.034;3.728;2023-03-29T14:59:36;8.00;;;5.25;;
77828;SDS011;67019;51.034;3.728;2023-03-29T15:02:20;20.20;;;7.12;;
77828;SDS011;67019;51.034;3.728;2023-03-29T15:04:55;16.05;;;5.42;;
77828;SDS011;67019;51.034;3.728;2023-03-29T15:07:35;18.82;;;6.12;;
77828;SDS011;67019;51.034;3.728;2023-03-29T15:10:00;11.60;;;5.57;;
77828;SDS011;67019;51.034;3.728;2023-03-29T15:12:30;13.85;;;7.75;;
77828;SDS011;67019;51.034;3.728;2023-03-29T15:14:58;13.75;;;7.12;;
77828;SDS011;67019;51.034;3.728;2023-03-29T15:20:04;11.78;;;6.87;;
77828;SDS011;67019;51.034;3.728;2023-03-29T15:22:35;12.07;;;6.83;;
77828;SDS011;67019;51.034;3.728;2023-03-29T15:27:42;14.05;;;7.17;;
77828;SDS011;67019;51.034;3.728;2023-03-29T15:30:10;16.15;;;7.25;;
77828;SDS011;67019;51.034;3.728;2023-03-29T15:32:40;13.88;;;7.25;;
77828;SDS011;67019;51.034;3.728;2023-03-29T15:35:19;13.35;;;7.17;;
77828;SDS011;67019;51.034;3.728;2023-03-29T15:37:50;11.90;;;6.50;;
77828;SDS011;67019;51.034;3.728;2023-03-29T15:40:22;13.28;;;7.67;;
77828;SDS011;67019;51.034;3.728;2023-03-29T15:42:53;16.40;;;7.00;;
77828;SDS011;67019;51.034;3.728;2023-03-29T15:45:21;17.75;;;7.40;;
77828;SDS011;67019;51.034;3.728;2023-03-29T15:47:52;13.10;;;6.70;;
77828;SDS011;67019;51.034;3.728;2023-03-29T15:50:23;15.83;;;6.72;;
77828;SDS011;67019;51.034;3.728;2023-03-29T15:52:50;16.45;;;6.37;;
77828;SDS011;67019;51.034;3.728;2023-03-29T15:55:20;11.33;;;6.53;;
77828;SDS011;67019;51.034;3.728;2023-03-29T15:57:51;12.25;;;6.60;;
77828;SDS011;67019;51.034;3.728;2023-03-29T16:00:19;11.55;;;6.95;;
77828;SDS011;67019;51.034;3.728;2023-03-29T16:02:47;14.13;;;6.62;;
77828;SDS011;67019;51.034;3.728;2023-03-29T16:05:16;12.55;;;6.80;;
77828;SDS011;67019;51.034;3.728;2023-03-29T16:07:46;59.80;;;8.08;;
77828;SDS011;67019;51.034;3.728;2023-03-29T16:10:20;11.25;;;6.87;;
77828;SDS011;67019;51.034;3.728;2023-03-29T16:12:48;14.20;;;6.78;;
77828;SDS011;67019;51.034;3.728;2023-03-29T16:15:16;19.05;;;6.97;;
77828;SDS011;67019;51.034;3.728;2023-03-29T16:17:48;18.25;;;7.12;;
77828;SDS011;67019;51.034;3.728;2023-03-29T16:20:15;18.05;;;8.40;;
77828;SDS011;67019;51.034;3.728;2023-03-29T16:22:47;31.73;;;8.78;;
77828;SDS011;67019;51.034;3.728;2023-03-29T16:25:17;20.10;;;7.03;;
77828;SDS011;67019;51.034;3.728;2023-03-29T16:27:47;16.73;;;8.08;;
77828;SDS011;67019;51.034;3.728;2023-03-29T16:30:16;20.35;;;7.95;;
77828;SDS011;67019;51.034;3.728;2023-03-29T16:32:44;15.08;;;8.68;;
77828;SDS011;67019;51.034;3.728;2023-03-29T16:35:20;17.15;;;8.10;;
77828;SDS011;67019;51.034;3.728;2023-03-29T16:37:56;17.27;;;8.43;;
77828;SDS011;67019;51.034;3.728;2023-03-29T16:43:13;122.58;;;12.40;;
77828;SDS011;67019;51.034;3.728;2023-03-29T16:45:43;21.80;;;9.10;;
77828;SDS011;67019;51.034;3.728;2023-03-29T16:48:15;39.60;;;12.93;;
77828;SDS011;67019;51.034;3.728;2023-03-29T16:50:44;48.13;;;22.55;;
77828;SDS011;67019;51.034;3.728;2023-03-29T16:53:15;27.75;;;14.38;;
77828;SDS011;67019;51.034;3.728;2023-03-29T16:55:46;19.55;;;11.20;;
77828;SDS011;67019;51.034;3.728;2023-03-29T16:58:16;19.92;;;8.33;;
77828;SDS011;67019;51.034;3.728;2023-03-29T17:00:44;37.45;;;8.35;;
77828;SDS011;67019;51.034;3.728;2023-03-29T17:03:16;12.37;;;7.47;;
77828;SDS011;67019;51.034;3.728;2023-03-29T17:05:51;22.32;;;7.40;;
77828;SDS011;67019;51.034;3.728;2023-03-29T17:08:19;81.55;;;11.12;;
77828;SDS011;67019;51.034;3.728;2023-03-29T17:10:51;15.00;;;5.95;;
77828;SDS011;67019;51.034;3.728;2023-03-29T17:13:20;14.60;;;6.22;;
77828;SDS011;67019;51.034;3.728;2023-03-29T17:15:49;18.75;;;5.92;;
77828;SDS011;67019;51.034;3.728;2023-03-29T17:18:23;16.93;;;6.53;;
77828;SDS011;67019;51.034;3.728;2023-03-29T17:20:48;11.70;;;5.97;;
77828;SDS011;67019;51.034;3.728;2023-03-29T17:23:17;15.50;;;6.63;;
77828;SDS011;67019;51.034;3.728;2023-03-29T17:25:45;17.35;;;5.78;;
77828;SDS011;67019;51.034;3.728;2023-03-29T17:28:13;11.20;;;5.62;;
77828;SDS011;67019;51.034;3.728;2023-03-29T17:30:42;14.93;;;5.40;;
77828;SDS011;67019;51.034;3.728;2023-03-29T17:33:11;17.17;;;5.58;;
77828;SDS011;67019;51.034;3.728;2023-03-29T17:35:40;14.15;;;5.08;;
77828;SDS011;67019;51.034;3.728;2023-03-29T17:38:09;13.15;;;4.75;;
77828;SDS011;67019;51.034;3.728;2023-03-29T17:40:38;20.17;;;5.30;;
77828;SDS011;67019;51.034;3.728;2023-03-29T17:43:14;12.33;;;5.33;;
77828;SDS011;67019;51.034;3.728;2023-03-29T17:45:41;16.20;;;5.42;;
77828;SDS011;67019;51.034;3.728;2023-03-29T17:48:09;16.65;;;4.87;;
77828;SDS011;67019;51.034;3.728;2023-03-29T17:50:37;16.45;;;5.17;;
77828;SDS011;67019;51.034;3.728;2023-03-29T17:53:04;24.63;;;6.12;;
77828;SDS011;67019;51.034;3.728;2023-03-29T17:55:34;26.15;;;6.08;;
77828;SDS011;67019;51.034;3.728;2023-03-29T17:58:04;18.70;;;5.78;;
77828;SDS011;67019;51.034;3.728;2023-03-29T18:00:31;14.45;;;5.75;;
77828;SDS011;67019;51.034;3.728;2023-03-29T18:02:59;20.08;;;5.30;;
77828;SDS011;67019;51.034;3.728;2023-03-29T18:05:27;17.70;;;6.17;;
77828;SDS011;67019;51.034;3.728;2023-03-29T18:07:54;14.98;;;5.87;;
77828;SDS011;67019;51.034;3.728;2023-03-29T18:10:22;43.80;;;7.15;;
77828;SDS011;67019;51.034;3.728;2023-03-29T18:12:50;40.95;;;7.03;;
77828;SDS011;67019;51.034;3.728;2023-03-29T18:15:19;41.75;;;5.80;;
77828;SDS011;67019;51.034;3.728;2023-03-29T18:17:47;41.45;;;7.47;;
77828;SDS011;67019;51.034;3.728;2023-03-29T18:20:14;27.80;;;6.28;;
77828;SDS011;67019;51.034;3.728;2023-03-29T18:22:42;16.07;;;5.15;;
77828;SDS011;67019;51.034;3.728;2023-03-29T18:25:10;33.38;;;5.55;;
77828;SDS011;67019;51.034;3.728;2023-03-29T18:27:39;25.48;;;5.08;;
77828;SDS011;67019;51.034;3.728;2023-03-29T18:30:07;16.10;;;4.87;;
77828;SDS011;67019;51.034;3.728;2023-03-29T18:32:35;11.90;;;4.30;;
77828;SDS011;67019;51.034;3.728;2023-03-29T18:35:02;11.28;;;4.92;;
77828;SDS011;67019;51.034;3.728;2023-03-29T18:37:31;11.10;;;4.28;;
77828;SDS011;67019;51.034;3.728;2023-03-29T18:39:58;21.40;;;5.05;;
77828;SDS011;67019;51.034;3.728;2023-03-29T18:42:26;11.22;;;4.87;;
77828;SDS011;67019;51.034;3.728;2023-03-29T18:44:54;16.25;;;5.85;;
77828;SDS011;67019;51.034;3.728;2023-03-29T18:47:21;12.10;;;4.12;;
77828;SDS011;67019;51.034;3.728;2023-03-29T18:49:50;8.88;;;4.50;;
77828;SDS011;67019;51.034;3.728;2023-03-29T18:52:18;12.82;;;5.70;;
77828;SDS011;67019;51.034;3.728;2023-03-29T18:54:45;13.62;;;4.45;;
77828;SDS011;67019;51.034;3.728;2023-03-29T18:57:13;20.57;;;4.45;;
77828;SDS011;67019;51.034;3.728;2023-03-29T18:59:41;24.15;;;6.03;;
77828;SDS011;67019;51.034;3.728;2023-03-29T19:02:08;15.93;;;5.22;;
77828;SDS011;67019;51.034;3.728;2023-03-29T19:04:36;19.02;;;5.25;;